sensor_id;sensor_type;location;lat;lon;timestamp;P1;durP1;ratioP1;P2;durP2;ratioP2
37997;SDS011;24079;51.824;4.682;2023-02-28T00:01:17;7.43;;;2.92;;
37997;SDS011;24079;51.824;4.682;2023-02-28T00:03:43;9.73;;;3.20;;
37997;SDS011;24079;51.824;4.682;2023-02-28T00:06:08;8.27;;;3.13;;
37997;SDS011;24079;51.824;4.682;2023-02-28T00:08:34;8.73;;;3.20;;
37997;SDS011;24079;51.824;4.682;2023-02-28T00:11:04;7.85;;;2.80;;
37997;SDS011;24079;51.824;4.682;2023-02-28T00:13:33;9.90;;;2.97;;
37997;SDS011;24079;51.824;4.682;2023-02-28T00:16:07;7.47;;;3.10;;
37997;SDS011;24079;51.824;4.682;2023-02-28T00:18:34;7.22;;;3.28;;
37997;SDS011;24079;51.824;4.682;2023-02-28T00:21:00;6.25;;;3.22;;
37997;SDS011;24079;51.824;4.682;2023-02-28T00:23:26;6.25;;;2.88;;
37997;SDS011;24079;51.824;4.682;2023-02-28T00:25:53;5.45;;;2.90;;
37997;SDS011;24079;51.824;4.682;2023-02-28T00:28:19;7.00;;;2.92;;
37997;SDS011;24079;51.824;4.682;2023-02-28T00:30:44;7.65;;;3.28;;
37997;SDS011;24079;51.824;4.682;2023-02-28T00:33:10;5.50;;;3.00;;
37997;SDS011;24079;51.824;4.682;2023-02-28T00:35:36;6.85;;;3.25;;
37997;SDS011;24079;51.824;4.682;2023-02-28T00:38:02;7.13;;;3.20;;
37997;SDS011;24079;51.824;4.682;2023-02-28T00:40:28;6.22;;;3.60;;
37997;SDS011;24079;51.824;4.682;2023-02-28T00:42:53;11.90;;;4.40;;
37997;SDS011;24079;51.824;4.682;2023-02-28T00:45:19;13.10;;;3.10;;
37997;SDS011;24079;51.824;4.682;2023-02-28T00:47:45;6.45;;;3.40;;
37997;SDS011;24079;51.824;4.682;2023-02-28T00:50:11;8.93;;;3.90;;
37997;SDS011;24079;51.824;4.682;2023-02-28T00:52:37;9.82;;;3.50;;
37997;SDS011;24079;51.824;4.682;2023-02-28T00:55:03;7.82;;;4.00;;
37997;SDS011;24079;51.824;4.682;2023-02-28T00:57:29;12.85;;;3.67;;
37997;SDS011;24079;51.824;4.682;2023-02-28T00:59:54;12.52;;;4.07;;
37997;SDS011;24079;51.824;4.682;2023-02-28T01:02:21;9.27;;;3.67;;
37997;SDS011;24079;51.824;4.682;2023-02-28T01:04:47;9.05;;;4.00;;
37997;SDS011;24079;51.824;4.682;2023-02-28T01:07:13;10.65;;;4.47;;
37997;SDS011;24079;51.824;4.682;2023-02-28T01:09:39;13.68;;;4.57;;
37997;SDS011;24079;51.824;4.682;2023-02-28T01:12:06;9.60;;;4.07;;
37997;SDS011;24079;51.824;4.682;2023-02-28T01:14:33;8.23;;;4.00;;
37997;SDS011;24079;51.824;4.682;2023-02-28T01:16:59;10.32;;;4.20;;
37997;SDS011;24079;51.824;4.682;2023-02-28T01:19:25;9.27;;;3.88;;
37997;SDS011;24079;51.824;4.682;2023-02-28T01:21:51;7.70;;;3.75;;
37997;SDS011;24079;51.824;4.682;2023-02-28T01:24:16;7.30;;;3.80;;
37997;SDS011;24079;51.824;4.682;2023-02-28T01:26:42;9.52;;;3.80;;
37997;SDS011;24079;51.824;4.682;2023-02-28T01:29:08;8.07;;;3.22;;
37997;SDS011;24079;51.824;4.682;2023-02-28T01:31:33;8.57;;;3.50;;
37997;SDS011;24079;51.824;4.682;2023-02-28T01:33:59;7.28;;;3.35;;
37997;SDS011;24079;51.824;4.682;2023-02-28T01:36:25;8.23;;;3.50;;
37997;SDS011;24079;51.824;4.682;2023-02-28T01:38:51;8.45;;;3.30;;
37997;SDS011;24079;51.824;4.682;2023-02-28T01:46:13;6.72;;;2.95;;
37997;SDS011;24079;51.824;4.682;2023-02-28T01:48:44;5.70;;;3.28;;
37997;SDS011;24079;51.824;4.682;2023-02-28T01:51:16;7.40;;;3.30;;
37997;SDS011;24079;51.824;4.682;2023-02-28T01:53:53;6.38;;;3.03;;
37997;SDS011;24079;51.824;4.682;2023-02-28T01:56:24;7.57;;;3.50;;
37997;SDS011;24079;51.824;4.682;2023-02-28T01:58:53;9.60;;;3.25;;
37997;SDS011;24079;51.824;4.682;2023-02-28T02:01:21;10.63;;;3.70;;
37997;SDS011;24079;51.824;4.682;2023-02-28T02:03:49;6.80;;;3.03;;
37997;SDS011;24079;51.824;4.682;2023-02-28T02:06:24;7.68;;;3.05;;
37997;SDS011;24079;51.824;4.682;2023-02-28T02:08:53;8.13;;;3.47;;
37997;SDS011;24079;51.824;4.682;2023-02-28T02:11:19;9.43;;;2.90;;
37997;SDS011;24079;51.824;4.682;2023-02-28T02:22:16;15.00;;;3.60;;
37997;SDS011;24079;51.824;4.682;2023-02-28T02:27:57;13.27;;;3.58;;
37997;SDS011;24079;51.824;4.682;2023-02-28T02:43:19;5.78;;;3.67;;
37997;SDS011;24079;51.824;4.682;2023-02-28T02:45:55;8.18;;;3.38;;
37997;SDS011;24079;51.824;4.682;2023-02-28T02:48:26;7.07;;;3.40;;
37997;SDS011;24079;51.824;4.682;2023-02-28T02:50:57;10.40;;;3.42;;
37997;SDS011;24079;51.824;4.682;2023-02-28T02:53:30;8.02;;;3.42;;
37997;SDS011;24079;51.824;4.682;2023-02-28T02:56:01;9.98;;;3.28;;
37997;SDS011;24079;51.824;4.682;2023-02-28T02:58:29;7.68;;;3.35;;
37997;SDS011;24079;51.824;4.682;2023-02-28T03:00:59;6.47;;;3.20;;
37997;SDS011;24079;51.824;4.682;2023-02-28T03:03:27;9.65;;;3.33;;
37997;SDS011;24079;51.824;4.682;2023-02-28T03:05:56;8.77;;;3.60;;
37997;SDS011;24079;51.824;4.682;2023-02-28T03:08:24;7.82;;;3.40;;
37997;SDS011;24079;51.824;4.682;2023-02-28T03:10:57;6.50;;;3.22;;
37997;SDS011;24079;51.824;4.682;2023-02-28T03:21:56;11.07;;;3.50;;
37997;SDS011;24079;51.824;4.682;2023-02-28T03:24:30;8.45;;;3.67;;
37997;SDS011;24079;51.824;4.682;2023-02-28T03:27:10;8.45;;;3.22;;
37997;SDS011;24079;51.824;4.682;2023-02-28T03:29:58;10.13;;;3.90;;
37997;SDS011;24079;51.824;4.682;2023-02-28T03:32:31;10.00;;;3.67;;
37997;SDS011;24079;51.824;4.682;2023-02-28T03:35:15;8.52;;;3.83;;
37997;SDS011;24079;51.824;4.682;2023-02-28T03:37:47;8.98;;;3.83;;
37997;SDS011;24079;51.824;4.682;2023-02-28T03:40:17;7.43;;;3.90;;
37997;SDS011;24079;51.824;4.682;2023-02-28T03:42:47;7.07;;;3.58;;
37997;SDS011;24079;51.824;4.682;2023-02-28T03:45:17;11.80;;;5.15;;
37997;SDS011;24079;51.824;4.682;2023-02-28T03:50:39;9.75;;;4.28;;
37997;SDS011;24079;51.824;4.682;2023-02-28T03:53:18;6.00;;;3.72;;
37997;SDS011;24079;51.824;4.682;2023-02-28T03:55:49;8.57;;;3.70;;
37997;SDS011;24079;51.824;4.682;2023-02-28T03:58:43;5.68;;;3.65;;
37997;SDS011;24079;51.824;4.682;2023-02-28T04:01:40;9.18;;;3.30;;
37997;SDS011;24079;51.824;4.682;2023-02-28T04:04:11;9.60;;;4.35;;
37997;SDS011;24079;51.824;4.682;2023-02-28T04:06:38;11.55;;;4.32;;
37997;SDS011;24079;51.824;4.682;2023-02-28T04:09:05;12.48;;;4.05;;
37997;SDS011;24079;51.824;4.682;2023-02-28T04:11:33;11.65;;;4.15;;
37997;SDS011;24079;51.824;4.682;2023-02-28T04:14:04;8.45;;;4.63;;
37997;SDS011;24079;51.824;4.682;2023-02-28T04:16:31;10.73;;;4.65;;
37997;SDS011;24079;51.824;4.682;2023-02-28T04:18:58;6.72;;;4.05;;
37997;SDS011;24079;51.824;4.682;2023-02-28T04:21:27;16.63;;;5.47;;
37997;SDS011;24079;51.824;4.682;2023-02-28T04:24:01;7.60;;;4.13;;
37997;SDS011;24079;51.824;4.682;2023-02-28T04:26:31;8.43;;;4.78;;
37997;SDS011;24079;51.824;4.682;2023-02-28T04:28:58;10.98;;;4.55;;
37997;SDS011;24079;51.824;4.682;2023-02-28T04:31:24;10.27;;;4.85;;
37997;SDS011;24079;51.824;4.682;2023-02-28T04:33:49;10.18;;;5.15;;
37997;SDS011;24079;51.824;4.682;2023-02-28T04:36:15;8.27;;;4.88;;
37997;SDS011;24079;51.824;4.682;2023-02-28T04:38:42;8.85;;;4.63;;
37997;SDS011;24079;51.824;4.682;2023-02-28T04:41:08;10.32;;;4.78;;
37997;SDS011;24079;51.824;4.682;2023-02-28T04:43:34;11.27;;;4.95;;
37997;SDS011;24079;51.824;4.682;2023-02-28T04:46:01;9.93;;;6.05;;
37997;SDS011;24079;51.824;4.682;2023-02-28T04:48:28;8.93;;;5.15;;
37997;SDS011;24079;51.824;4.682;2023-02-28T04:50:59;11.80;;;5.05;;
37997;SDS011;24079;51.824;4.682;2023-02-28T04:53:29;9.75;;;4.70;;
37997;SDS011;24079;51.824;4.682;2023-02-28T04:55:55;8.60;;;4.70;;
37997;SDS011;24079;51.824;4.682;2023-02-28T04:58:21;6.97;;;4.55;;
37997;SDS011;24079;51.824;4.682;2023-02-28T05:00:48;7.38;;;4.40;;
37997;SDS011;24079;51.824;4.682;2023-02-28T05:03:18;9.05;;;4.53;;
37997;SDS011;24079;51.824;4.682;2023-02-28T05:05:45;5.72;;;4.10;;
37997;SDS011;24079;51.824;4.682;2023-02-28T05:08:11;10.00;;;4.85;;
37997;SDS011;24079;51.824;4.682;2023-02-28T05:10:37;10.95;;;4.90;;
37997;SDS011;24079;51.824;4.682;2023-02-28T05:13:02;7.82;;;4.45;;
37997;SDS011;24079;51.824;4.682;2023-02-28T05:15:28;15.85;;;5.28;;
37997;SDS011;24079;51.824;4.682;2023-02-28T05:17:53;12.90;;;5.05;;
37997;SDS011;24079;51.824;4.682;2023-02-28T05:20:19;10.10;;;4.97;;
37997;SDS011;24079;51.824;4.682;2023-02-28T05:22:46;11.82;;;4.82;;
37997;SDS011;24079;51.824;4.682;2023-02-28T05:25:12;8.57;;;4.60;;
37997;SDS011;24079;51.824;4.682;2023-02-28T05:27:41;8.77;;;4.38;;
37997;SDS011;24079;51.824;4.682;2023-02-28T05:30:07;8.55;;;4.93;;
37997;SDS011;24079;51.824;4.682;2023-02-28T05:32:35;12.18;;;5.25;;
37997;SDS011;24079;51.824;4.682;2023-02-28T05:35:02;9.40;;;4.72;;
37997;SDS011;24079;51.824;4.682;2023-02-28T05:37:28;7.43;;;4.97;;
37997;SDS011;24079;51.824;4.682;2023-02-28T05:39:54;11.88;;;5.30;;
37997;SDS011;24079;51.824;4.682;2023-02-28T05:42:19;8.27;;;4.57;;
37997;SDS011;24079;51.824;4.682;2023-02-28T05:44:45;9.73;;;5.47;;
37997;SDS011;24079;51.824;4.682;2023-02-28T05:47:11;11.40;;;4.95;;
37997;SDS011;24079;51.824;4.682;2023-02-28T05:49:40;7.82;;;4.78;;
37997;SDS011;24079;51.824;4.682;2023-02-28T05:52:06;8.13;;;4.80;;
37997;SDS011;24079;51.824;4.682;2023-02-28T05:54:32;10.93;;;5.13;;
37997;SDS011;24079;51.824;4.682;2023-02-28T05:56:57;9.75;;;3.90;;
37997;SDS011;24079;51.824;4.682;2023-02-28T05:59:23;8.57;;;3.40;;
37997;SDS011;24079;51.824;4.682;2023-02-28T06:01:49;9.05;;;3.75;;
37997;SDS011;24079;51.824;4.682;2023-02-28T06:04:16;8.10;;;3.20;;
37997;SDS011;24079;51.824;4.682;2023-02-28T06:06:47;8.32;;;3.47;;
37997;SDS011;24079;51.824;4.682;2023-02-28T06:09:14;6.57;;;3.38;;
37997;SDS011;24079;51.824;4.682;2023-02-28T06:11:41;8.18;;;3.17;;
37997;SDS011;24079;51.824;4.682;2023-02-28T06:14:07;11.68;;;3.13;;
37997;SDS011;24079;51.824;4.682;2023-02-28T06:16:40;6.88;;;2.95;;
37997;SDS011;24079;51.824;4.682;2023-02-28T06:19:06;9.05;;;3.67;;
37997;SDS011;24079;51.824;4.682;2023-02-28T06:21:32;8.23;;;3.25;;
37997;SDS011;24079;51.824;4.682;2023-02-28T06:23:58;11.35;;;3.42;;
37997;SDS011;24079;51.824;4.682;2023-02-28T06:26:24;7.22;;;3.10;;
37997;SDS011;24079;51.824;4.682;2023-02-28T06:28:50;4.82;;;2.92;;
37997;SDS011;24079;51.824;4.682;2023-02-28T06:31:17;5.90;;;3.10;;
37997;SDS011;24079;51.824;4.682;2023-02-28T06:33:43;9.52;;;2.90;;
37997;SDS011;24079;51.824;4.682;2023-02-28T06:36:10;9.55;;;3.30;;
37997;SDS011;24079;51.824;4.682;2023-02-28T06:38:37;10.38;;;3.28;;
37997;SDS011;24079;51.824;4.682;2023-02-28T06:41:03;7.65;;;2.92;;
37997;SDS011;24079;51.824;4.682;2023-02-28T06:43:32;6.38;;;3.20;;
37997;SDS011;24079;51.824;4.682;2023-02-28T06:46:00;7.22;;;3.10;;
37997;SDS011;24079;51.824;4.682;2023-02-28T06:48:28;7.25;;;2.92;;
37997;SDS011;24079;51.824;4.682;2023-02-28T06:51:07;8.13;;;2.97;;
37997;SDS011;24079;51.824;4.682;2023-02-28T06:53:35;5.97;;;2.87;;
37997;SDS011;24079;51.824;4.682;2023-02-28T06:56:11;6.82;;;3.13;;
37997;SDS011;24079;51.824;4.682;2023-02-28T06:58:39;6.80;;;3.58;;
37997;SDS011;24079;51.824;4.682;2023-02-28T07:01:05;9.15;;;3.22;;
37997;SDS011;24079;51.824;4.682;2023-02-28T07:03:32;7.85;;;2.92;;
37997;SDS011;24079;51.824;4.682;2023-02-28T07:05:59;6.57;;;3.13;;
37997;SDS011;24079;51.824;4.682;2023-02-28T07:08:25;6.47;;;3.30;;
37997;SDS011;24079;51.824;4.682;2023-02-28T07:10:55;9.20;;;3.65;;
37997;SDS011;24079;51.824;4.682;2023-02-28T07:13:21;6.53;;;3.20;;
37997;SDS011;24079;51.824;4.682;2023-02-28T07:15:57;12.20;;;4.28;;
37997;SDS011;24079;51.824;4.682;2023-02-28T07:18:27;8.95;;;3.30;;
37997;SDS011;24079;51.824;4.682;2023-02-28T07:20:53;6.22;;;3.33;;
37997;SDS011;24079;51.824;4.682;2023-02-28T07:23:19;8.73;;;4.20;;
37997;SDS011;24079;51.824;4.682;2023-02-28T07:25:45;7.45;;;2.95;;
37997;SDS011;24079;51.824;4.682;2023-02-28T07:28:12;5.95;;;2.97;;
37997;SDS011;24079;51.824;4.682;2023-02-28T07:30:38;8.05;;;3.05;;
37997;SDS011;24079;51.824;4.682;2023-02-28T07:33:04;5.80;;;2.95;;
37997;SDS011;24079;51.824;4.682;2023-02-28T07:35:30;5.05;;;2.90;;
37997;SDS011;24079;51.824;4.682;2023-02-28T07:37:59;6.32;;;3.00;;
37997;SDS011;24079;51.824;4.682;2023-02-28T07:40:25;5.82;;;2.85;;
37997;SDS011;24079;51.824;4.682;2023-02-28T07:42:51;9.05;;;3.78;;
37997;SDS011;24079;51.824;4.682;2023-02-28T07:45:17;5.75;;;3.17;;
37997;SDS011;24079;51.824;4.682;2023-02-28T07:47:43;7.70;;;3.50;;
37997;SDS011;24079;51.824;4.682;2023-02-28T07:50:10;8.15;;;3.05;;
37997;SDS011;24079;51.824;4.682;2023-02-28T07:52:38;6.00;;;3.33;;
37997;SDS011;24079;51.824;4.682;2023-02-28T07:55:04;8.60;;;3.47;;
37997;SDS011;24079;51.824;4.682;2023-02-28T07:57:31;7.05;;;3.20;;
37997;SDS011;24079;51.824;4.682;2023-02-28T07:59:57;8.27;;;3.60;;
37997;SDS011;24079;51.824;4.682;2023-02-28T08:02:22;9.10;;;3.55;;
37997;SDS011;24079;51.824;4.682;2023-02-28T08:04:48;7.97;;;3.30;;
37997;SDS011;24079;51.824;4.682;2023-02-28T08:07:14;8.70;;;3.40;;
37997;SDS011;24079;51.824;4.682;2023-02-28T08:09:41;7.82;;;3.30;;
37997;SDS011;24079;51.824;4.682;2023-02-28T08:12:07;6.90;;;3.40;;
37997;SDS011;24079;51.824;4.682;2023-02-28T08:14:34;7.22;;;3.50;;
37997;SDS011;24079;51.824;4.682;2023-02-28T08:17:00;5.68;;;2.90;;
37997;SDS011;24079;51.824;4.682;2023-02-28T08:19:26;10.77;;;3.45;;
37997;SDS011;24079;51.824;4.682;2023-02-28T08:21:52;8.48;;;3.50;;
37997;SDS011;24079;51.824;4.682;2023-02-28T08:24:17;10.35;;;3.60;;
37997;SDS011;24079;51.824;4.682;2023-02-28T08:26:43;8.13;;;3.35;;
37997;SDS011;24079;51.824;4.682;2023-02-28T08:29:09;10.68;;;4.50;;
37997;SDS011;24079;51.824;4.682;2023-02-28T08:31:34;5.72;;;3.50;;
37997;SDS011;24079;51.824;4.682;2023-02-28T08:34:04;6.45;;;3.30;;
37997;SDS011;24079;51.824;4.682;2023-02-28T08:36:31;7.57;;;3.67;;
37997;SDS011;24079;51.824;4.682;2023-02-28T08:38:57;9.32;;;4.30;;
37997;SDS011;24079;51.824;4.682;2023-02-28T08:41:24;12.13;;;5.25;;
37997;SDS011;24079;51.824;4.682;2023-02-28T08:43:50;14.07;;;4.35;;
37997;SDS011;24079;51.824;4.682;2023-02-28T08:46:15;10.60;;;5.35;;
37997;SDS011;24079;51.824;4.682;2023-02-28T08:48:41;11.75;;;5.47;;
37997;SDS011;24079;51.824;4.682;2023-02-28T08:51:10;10.32;;;5.20;;
37997;SDS011;24079;51.824;4.682;2023-02-28T08:53:38;10.70;;;4.88;;
37997;SDS011;24079;51.824;4.682;2023-02-28T08:56:09;10.15;;;4.72;;
37997;SDS011;24079;51.824;4.682;2023-02-28T08:58:39;10.57;;;4.65;;
37997;SDS011;24079;51.824;4.682;2023-02-28T09:03:52;6.53;;;4.10;;
37997;SDS011;24079;51.824;4.682;2023-02-28T09:06:18;7.00;;;4.07;;
37997;SDS011;24079;51.824;4.682;2023-02-28T09:08:44;10.50;;;4.35;;
37997;SDS011;24079;51.824;4.682;2023-02-28T09:11:10;12.35;;;4.65;;
37997;SDS011;24079;51.824;4.682;2023-02-28T09:13:36;23.35;;;4.50;;
37997;SDS011;24079;51.824;4.682;2023-02-28T09:16:03;8.07;;;4.55;;
37997;SDS011;24079;51.824;4.682;2023-02-28T09:18:33;9.00;;;4.32;;
37997;SDS011;24079;51.824;4.682;2023-02-28T09:21:02;6.63;;;4.50;;
37997;SDS011;24079;51.824;4.682;2023-02-28T09:23:29;10.95;;;4.38;;
37997;SDS011;24079;51.824;4.682;2023-02-28T09:25:55;9.25;;;4.28;;
37997;SDS011;24079;51.824;4.682;2023-02-28T09:28:21;8.63;;;4.00;;
37997;SDS011;24079;51.824;4.682;2023-02-28T09:30:48;5.95;;;3.88;;
37997;SDS011;24079;51.824;4.682;2023-02-28T09:33:16;7.65;;;4.15;;
37997;SDS011;24079;51.824;4.682;2023-02-28T09:35:46;11.77;;;4.65;;
37997;SDS011;24079;51.824;4.682;2023-02-28T09:38:12;13.95;;;4.40;;
37997;SDS011;24079;51.824;4.682;2023-02-28T09:40:40;8.50;;;3.70;;
37997;SDS011;24079;51.824;4.682;2023-02-28T09:43:14;10.65;;;4.63;;
37997;SDS011;24079;51.824;4.682;2023-02-28T09:45:42;20.20;;;5.43;;
37997;SDS011;24079;51.824;4.682;2023-02-28T09:48:24;8.88;;;4.25;;
37997;SDS011;24079;51.824;4.682;2023-02-28T09:51:03;6.70;;;3.72;;
37997;SDS011;24079;51.824;4.682;2023-02-28T09:53:48;10.90;;;3.28;;
37997;SDS011;24079;51.824;4.682;2023-02-28T10:01:45;7.90;;;2.33;;
37997;SDS011;24079;51.824;4.682;2023-02-28T10:08:02;7.63;;;3.15;;
37997;SDS011;24079;51.824;4.682;2023-02-28T10:12:53;6.55;;;2.60;;
37997;SDS011;24079;51.824;4.682;2023-02-28T10:15:21;4.85;;;2.55;;
37997;SDS011;24079;51.824;4.682;2023-02-28T10:17:51;6.45;;;2.67;;
37997;SDS011;24079;51.824;4.682;2023-02-28T10:20:21;7.00;;;2.38;;
37997;SDS011;24079;51.824;4.682;2023-02-28T10:25:49;7.07;;;2.22;;
37997;SDS011;24079;51.824;4.682;2023-02-28T10:28:20;7.13;;;2.20;;
37997;SDS011;24079;51.824;4.682;2023-02-28T10:30:50;2.67;;;1.92;;
37997;SDS011;24079;51.824;4.682;2023-02-28T10:33:25;4.30;;;1.80;;
37997;SDS011;24079;51.824;4.682;2023-02-28T10:35:54;4.25;;;1.70;;
37997;SDS011;24079;51.824;4.682;2023-02-28T10:38:24;2.42;;;1.70;;
37997;SDS011;24079;51.824;4.682;2023-02-28T10:43:28;7.07;;;1.98;;
37997;SDS011;24079;51.824;4.682;2023-02-28T10:51:10;5.47;;;1.75;;
37997;SDS011;24079;51.824;4.682;2023-02-28T10:53:39;3.85;;;1.88;;
37997;SDS011;24079;51.824;4.682;2023-02-28T11:01:49;6.38;;;2.38;;
37997;SDS011;24079;51.824;4.682;2023-02-28T11:07:36;4.28;;;2.10;;
37997;SDS011;24079;51.824;4.682;2023-02-28T11:09:45;2.97;;;1.80;;
37997;SDS011;24079;51.824;4.682;2023-02-28T11:12:21;5.00;;;1.80;;
37997;SDS011;24079;51.824;4.682;2023-02-28T11:14:48;4.55;;;2.03;;
37997;SDS011;24079;51.824;4.682;2023-02-28T11:17:27;3.47;;;1.75;;
37997;SDS011;24079;51.824;4.682;2023-02-28T11:20:04;4.03;;;2.03;;
37997;SDS011;24079;51.824;4.682;2023-02-28T11:22:33;4.10;;;1.75;;
37997;SDS011;24079;51.824;4.682;2023-02-28T11:25:07;3.20;;;1.75;;
37997;SDS011;24079;51.824;4.682;2023-02-28T11:27:46;3.00;;;1.73;;
37997;SDS011;24079;51.824;4.682;2023-02-28T11:33:18;4.95;;;2.03;;
37997;SDS011;24079;51.824;4.682;2023-02-28T11:36:01;10.95;;;2.20;;
37997;SDS011;24079;51.824;4.682;2023-02-28T11:38:33;3.10;;;2.50;;
37997;SDS011;24079;51.824;4.682;2023-02-28T11:46:51;2.13;;;1.73;;
37997;SDS011;24079;51.824;4.682;2023-02-28T11:55:02;2.10;;;1.77;;
37997;SDS011;24079;51.824;4.682;2023-02-28T12:03:17;4.43;;;1.55;;
37997;SDS011;24079;51.824;4.682;2023-02-28T12:05:58;4.10;;;1.98;;
37997;SDS011;24079;51.824;4.682;2023-02-28T12:09:04;4.70;;;1.70;;
37997;SDS011;24079;51.824;4.682;2023-02-28T12:12:50;3.42;;;2.10;;
37997;SDS011;24079;51.824;4.682;2023-02-28T12:15:13;2.95;;;1.92;;
37997;SDS011;24079;51.824;4.682;2023-02-28T12:21:04;3.47;;;1.55;;
37997;SDS011;24079;51.824;4.682;2023-02-28T12:24:06;4.97;;;1.80;;
37997;SDS011;24079;51.824;4.682;2023-02-28T12:26:55;4.68;;;1.90;;
37997;SDS011;24079;51.824;4.682;2023-02-28T12:29:29;3.33;;;1.92;;
37997;SDS011;24079;51.824;4.682;2023-02-28T12:32:01;2.70;;;1.70;;
37997;SDS011;24079;51.824;4.682;2023-02-28T12:34:49;3.75;;;1.73;;
37997;SDS011;24079;51.824;4.682;2023-02-28T12:37:25;4.53;;;2.05;;
37997;SDS011;24079;51.824;4.682;2023-02-28T12:40:00;2.88;;;2.03;;
37997;SDS011;24079;51.824;4.682;2023-02-28T12:42:32;2.65;;;1.85;;
37997;SDS011;24079;51.824;4.682;2023-02-28T12:45:05;1.95;;;1.60;;
37997;SDS011;24079;51.824;4.682;2023-02-28T12:47:38;6.22;;;2.03;;
37997;SDS011;24079;51.824;4.682;2023-02-28T12:50:08;3.00;;;1.90;;
37997;SDS011;24079;51.824;4.682;2023-02-28T12:55:11;3.92;;;1.70;;
37997;SDS011;24079;51.824;4.682;2023-02-28T13:00:40;4.88;;;1.88;;
37997;SDS011;24079;51.824;4.682;2023-02-28T13:19:35;3.63;;;2.10;;
37997;SDS011;24079;51.824;4.682;2023-02-28T13:24:54;3.03;;;1.63;;
37997;SDS011;24079;51.824;4.682;2023-02-28T13:29:50;1.63;;;1.52;;
37997;SDS011;24079;51.824;4.682;2023-02-28T13:47:30;5.53;;;2.17;;
37997;SDS011;24079;51.824;4.682;2023-02-28T13:57:58;5.28;;;2.03;;
37997;SDS011;24079;51.824;4.682;2023-02-28T14:08:57;4.43;;;2.20;;
37997;SDS011;24079;51.824;4.682;2023-02-28T14:11:48;2.22;;;1.63;;
37997;SDS011;24079;51.824;4.682;2023-02-28T14:17:00;3.47;;;2.00;;
37997;SDS011;24079;51.824;4.682;2023-02-28T14:19:32;5.22;;;1.88;;
37997;SDS011;24079;51.824;4.682;2023-02-28T14:22:16;6.10;;;2.28;;
37997;SDS011;24079;51.824;4.682;2023-02-28T14:25:15;4.07;;;2.05;;
37997;SDS011;24079;51.824;4.682;2023-02-28T14:28:08;4.80;;;2.10;;
37997;SDS011;24079;51.824;4.682;2023-02-28T14:33:55;3.08;;;1.88;;
37997;SDS011;24079;51.824;4.682;2023-02-28T14:36:41;4.10;;;2.20;;
37997;SDS011;24079;51.824;4.682;2023-02-28T14:39:13;2.70;;;2.20;;
37997;SDS011;24079;51.824;4.682;2023-02-28T14:41:45;4.03;;;2.65;;
37997;SDS011;24079;51.824;4.682;2023-02-28T14:44:21;4.13;;;1.77;;
37997;SDS011;24079;51.824;4.682;2023-02-28T14:46:53;5.65;;;2.03;;
37997;SDS011;24079;51.824;4.682;2023-02-28T14:49:27;5.75;;;1.98;;
37997;SDS011;24079;51.824;4.682;2023-02-28T14:52:29;3.65;;;1.92;;
37997;SDS011;24079;51.824;4.682;2023-02-28T14:54:52;2.97;;;1.80;;
37997;SDS011;24079;51.824;4.682;2023-02-28T14:57:40;5.60;;;1.88;;
37997;SDS011;24079;51.824;4.682;2023-02-28T15:00:35;3.92;;;2.38;;
37997;SDS011;24079;51.824;4.682;2023-02-28T15:03:27;3.92;;;2.47;;
37997;SDS011;24079;51.824;4.682;2023-02-28T15:06:01;2.97;;;1.85;;
37997;SDS011;24079;51.824;4.682;2023-02-28T15:08:29;3.35;;;2.05;;
37997;SDS011;24079;51.824;4.682;2023-02-28T15:11:01;2.90;;;2.28;;
37997;SDS011;24079;51.824;4.682;2023-02-28T15:13:49;3.47;;;2.20;;
37997;SDS011;24079;51.824;4.682;2023-02-28T15:16:19;4.85;;;2.20;;
37997;SDS011;24079;51.824;4.682;2023-02-28T15:18:51;3.53;;;2.17;;
37997;SDS011;24079;51.824;4.682;2023-02-28T15:21:27;2.47;;;2.10;;
37997;SDS011;24079;51.824;4.682;2023-02-28T15:26:27;3.85;;;1.90;;
37997;SDS011;24079;51.824;4.682;2023-02-28T15:28:59;5.05;;;2.20;;
37997;SDS011;24079;51.824;4.682;2023-02-28T15:31:31;4.37;;;2.20;;
37997;SDS011;24079;51.824;4.682;2023-02-28T15:34:02;4.72;;;2.22;;
37997;SDS011;24079;51.824;4.682;2023-02-28T15:36:30;3.90;;;2.20;;
37997;SDS011;24079;51.824;4.682;2023-02-28T15:38:59;2.83;;;1.92;;
37997;SDS011;24079;51.824;4.682;2023-02-28T15:41:27;7.18;;;2.22;;
37997;SDS011;24079;51.824;4.682;2023-02-28T15:44:15;3.65;;;1.92;;
37997;SDS011;24079;51.824;4.682;2023-02-28T15:46:43;4.95;;;2.30;;
37997;SDS011;24079;51.824;4.682;2023-02-28T15:49:19;3.22;;;2.08;;
37997;SDS011;24079;51.824;4.682;2023-02-28T15:51:46;3.03;;;2.33;;
37997;SDS011;24079;51.824;4.682;2023-02-28T15:54:18;3.97;;;2.30;;
37997;SDS011;24079;51.824;4.682;2023-02-28T15:56:57;3.40;;;2.22;;
37997;SDS011;24079;51.824;4.682;2023-02-28T15:59:29;2.63;;;2.08;;
37997;SDS011;24079;51.824;4.682;2023-02-28T16:04:34;3.38;;;2.20;;
37997;SDS011;24079;51.824;4.682;2023-02-28T16:07:05;5.88;;;2.08;;
37997;SDS011;24079;51.824;4.682;2023-02-28T16:09:37;4.43;;;2.30;;
37997;SDS011;24079;51.824;4.682;2023-02-28T16:12:03;5.22;;;2.25;;
37997;SDS011;24079;51.824;4.682;2023-02-28T16:14:30;3.83;;;2.53;;
37997;SDS011;24079;51.824;4.682;2023-02-28T16:16:56;3.67;;;2.45;;
37997;SDS011;24079;51.824;4.682;2023-02-28T16:19:30;4.25;;;2.35;;
37997;SDS011;24079;51.824;4.682;2023-02-28T16:21:56;4.55;;;2.35;;
37997;SDS011;24079;51.824;4.682;2023-02-28T16:24:22;5.03;;;2.47;;
37997;SDS011;24079;51.824;4.682;2023-02-28T16:26:48;2.65;;;2.03;;
37997;SDS011;24079;51.824;4.682;2023-02-28T16:29:20;4.47;;;2.63;;
37997;SDS011;24079;51.824;4.682;2023-02-28T16:31:53;5.75;;;2.47;;
37997;SDS011;24079;51.824;4.682;2023-02-28T16:34:19;6.15;;;2.42;;
37997;SDS011;24079;51.824;4.682;2023-02-28T16:36:46;3.88;;;2.58;;
37997;SDS011;24079;51.824;4.682;2023-02-28T16:39:12;4.10;;;2.20;;
37997;SDS011;24079;51.824;4.682;2023-02-28T16:41:38;6.22;;;2.55;;
37997;SDS011;24079;51.824;4.682;2023-02-28T16:44:10;5.38;;;2.47;;
37997;SDS011;24079;51.824;4.682;2023-02-28T16:46:40;3.38;;;2.33;;
37997;SDS011;24079;51.824;4.682;2023-02-28T16:49:09;4.20;;;2.30;;
37997;SDS011;24079;51.824;4.682;2023-02-28T16:51:37;4.15;;;2.50;;
37997;SDS011;24079;51.824;4.682;2023-02-28T16:54:02;4.00;;;2.55;;
37997;SDS011;24079;51.824;4.682;2023-02-28T16:56:28;2.35;;;2.15;;
37997;SDS011;24079;51.824;4.682;2023-02-28T16:58:54;5.38;;;2.60;;
37997;SDS011;24079;51.824;4.682;2023-02-28T17:01:24;4.50;;;2.42;;
37997;SDS011;24079;51.824;4.682;2023-02-28T17:03:51;3.10;;;2.22;;
37997;SDS011;24079;51.824;4.682;2023-02-28T17:06:19;3.40;;;2.63;;
37997;SDS011;24079;51.824;4.682;2023-02-28T17:08:48;3.80;;;2.22;;
37997;SDS011;24079;51.824;4.682;2023-02-28T17:11:15;4.32;;;2.60;;
37997;SDS011;24079;51.824;4.682;2023-02-28T17:13:41;4.00;;;2.40;;
37997;SDS011;24079;51.824;4.682;2023-02-28T17:16:09;8.70;;;3.13;;
37997;SDS011;24079;51.824;4.682;2023-02-28T17:18:47;3.75;;;2.60;;
37997;SDS011;24079;51.824;4.682;2023-02-28T17:21:16;5.50;;;2.80;;
37997;SDS011;24079;51.824;4.682;2023-02-28T17:23:42;3.78;;;2.50;;
37997;SDS011;24079;51.824;4.682;2023-02-28T17:26:12;7.25;;;3.60;;
37997;SDS011;24079;51.824;4.682;2023-02-28T17:28:48;6.15;;;2.88;;
37997;SDS011;24079;51.824;4.682;2023-02-28T17:31:14;5.15;;;2.60;;
37997;SDS011;24079;51.824;4.682;2023-02-28T17:33:40;5.53;;;3.30;;
37997;SDS011;24079;51.824;4.682;2023-02-28T17:36:09;4.80;;;3.53;;
37997;SDS011;24079;51.824;4.682;2023-02-28T17:38:39;7.03;;;3.80;;
37997;SDS011;24079;51.824;4.682;2023-02-28T17:41:04;5.18;;;3.38;;
37997;SDS011;24079;51.824;4.682;2023-02-28T17:43:30;7.30;;;3.60;;
37997;SDS011;24079;51.824;4.682;2023-02-28T17:45:56;8.43;;;3.70;;
37997;SDS011;24079;51.824;4.682;2023-02-28T17:48:23;7.82;;;4.07;;
37997;SDS011;24079;51.824;4.682;2023-02-28T17:50:49;9.40;;;4.25;;